Athens Eleftherios, Greece

7:43 AM EEST on August 31, 2016 (GMT +0300)
Agios Nikolaos, Spata-19004, Athens (GR) | | Change Station

Elev 446 ft 37.98 °N, 23.90 °E | Updated 5 seconds ago

Partly Cloudy
Partly Cloudy
78.9 °F
Feels Like 79 °F
N
3.1
Wind Variable Wind from West
Gusts 3.8 mph

Today
High -- | Low -- °F
--% Chance of Precip.
Yesterday
High -- | Low -- °F
Precip. -- in
Pressure 30.01 in
Visibility 6.2 miles
Clouds Few 2500 ft
Heat Index 79 °F
Dew Point 54 °F
Humidity 43%
Rainfall 0.00 in
Snow Depth Not available.
6:53 AM 7:54 PM
Waning Crescent, 1% visible
METAR LGAV 310420Z VRB02KT 9999 FEW025 22/14 Q1016 NOSIG
Pressure 30.01 in
Visibility 6.2 miles
Clouds Few 2500 ft
Heat Index 79 °F
Dew Point 54 °F
Humidity 43%
Rainfall 0.00 in
Snow Depth Not available.
6:53 AM 7:54 PM
Waning Crescent, 1% visible
METAR LGAV 310420Z VRB02KT 9999 FEW025 22/14 Q1016 NOSIG

10-Day Weather Forecast

×

Almanac

Astronomy

Aug. 31, 2016 Rise Set
Actual Time
Civil Twilight
Nautical Twilight
Astronomical Twilight
Moon
Length of Visible Light
Length of Day
Tomorrow will be .
, % of the Moon is Illuminated

Today's Extremes

Country Highs Country Lows

Community

WunderPhotos

Upload Photos

1,936,039 photos uploaded!

WunderBlog® & News

Nearby

Air Quality

  Air Quality AQ Index Pollutant
Not available.

Snow Depth

Station Depth Elevation

Earthquake Activity

City Distance Mag. Time & Date
Minimum magnitude displayed is 2.5.

Coastal Water Temperatures

Place Temperature

Stations

Nearby Weather Stations

Station Location Temp. Windchill Dew Point Humidity Wind Precip. Elev Updated Type